createdAt,value
2023-04-23T00:00:44.718Z,99977.31
2023-04-23T00:03:14.805Z,99976.53
2023-04-23T00:05:44.994Z,99972.00
2023-04-23T00:08:13.150Z,99969.31
2023-04-23T00:10:40.928Z,99963.97
2023-04-23T00:13:09.950Z,99968.28
2023-04-23T00:15:38.373Z,99964.59
2023-04-23T00:18:05.926Z,99976.69
2023-04-23T00:20:34.161Z,99969.47
2023-04-23T00:23:03.128Z,99975.84
2023-04-23T00:25:30.798Z,99977.47
2023-04-23T00:27:58.263Z,99967.84
2023-04-23T00:30:25.810Z,99979.72
2023-04-23T00:32:53.288Z,99973.25
2023-04-23T00:35:20.766Z,99979.81
2023-04-23T00:37:48.203Z,99979.59
2023-04-23T00:40:17.061Z,99973.88
2023-04-23T00:42:45.644Z,99972.00
2023-04-23T00:45:13.248Z,99984.97
2023-04-23T00:47:41.654Z,99981.41
2023-04-23T00:50:09.815Z,99979.56
2023-04-23T00:52:39.041Z,99976.28
2023-04-23T00:55:08.384Z,99982.66
2023-04-23T00:57:37.431Z,99973.63
2023-04-23T01:00:07.165Z,99977.75
2023-04-23T01:02:36.497Z,99974.81
2023-04-23T01:05:06.593Z,99974.88
2023-04-23T01:07:35.509Z,99971.97
2023-04-23T01:10:03.170Z,99970.38
2023-04-23T01:12:30.715Z,99969.53
2023-04-23T01:14:59.527Z,99970.78
2023-04-23T01:17:27.713Z,99969.94
2023-04-23T01:19:55.283Z,99969.31
2023-04-23T01:22:24.593Z,99971.56
2023-04-23T01:24:52.736Z,99973.19
2023-04-23T01:27:22.255Z,99972.47
2023-04-23T01:29:50.326Z,99976.13
2023-04-23T01:32:18.305Z,99977.78
2023-04-23T01:34:47.794Z,99976.16
2023-04-23T01:37:15.457Z,99980.06
2023-04-23T01:39:44.265Z,99974.88
2023-04-23T01:42:11.764Z,99982.22
2023-04-23T01:44:39.663Z,99982.88
2023-04-23T01:47:07.378Z,99979.41
2023-04-23T01:49:34.936Z,99987.69
2023-04-23T01:52:02.396Z,99992.00
2023-04-23T01:54:29.886Z,99994.88
2023-04-23T01:56:58.883Z,99989.16
2023-04-23T01:59:26.370Z,99997.34
2023-04-23T02:01:54.022Z,99999.38
2023-04-23T02:04:21.779Z,99999.22
2023-04-23T02:06:51.146Z,100004.53
2023-04-23T02:09:18.629Z,100004.34
2023-04-23T02:11:46.090Z,100007.38
2023-04-23T02:14:14.874Z,100006.97
2023-04-23T02:16:42.368Z,100007.91
2023-04-23T02:19:09.784Z,100005.69
2023-04-23T02:21:37.228Z,100014.34
2023-04-23T02:24:06.034Z,100008.63
2023-04-23T02:26:33.549Z,100000.22
2023-04-23T02:29:01.011Z,100000.41
2023-04-23T02:31:29.935Z,99999.00
2023-04-23T02:33:57.972Z,99987.66
2023-04-23T02:36:25.750Z,99996.91
2023-04-23T02:38:53.177Z,99994.88
2023-04-23T02:41:21.538Z,99999.59
2023-04-23T02:43:49.006Z,99997.91
2023-04-23T02:46:16.527Z,100003.47
2023-04-23T02:48:45.333Z,99999.38
2023-04-23T02:51:14.197Z,100005.75
2023-04-23T02:53:41.667Z,100007.78
2023-04-23T02:56:09.138Z,100007.38
2023-04-23T02:58:36.668Z,100010.47
2023-04-23T03:01:05.148Z,100012.91
2023-04-23T03:03:33.109Z,100019.09
2023-04-23T03:06:02.630Z,100009.06
2023-04-23T03:08:30.228Z,100015.00
2023-04-23T03:10:57.749Z,100014.41
2023-04-23T03:13:25.830Z,100017.84
2023-04-23T03:15:54.012Z,100005.75
2023-04-23T03:18:21.662Z,100011.28
2023-04-23T03:20:49.191Z,100016.84
2023-04-23T03:23:18.042Z,100017.72
2023-04-23T03:25:45.568Z,100012.75
2023-04-23T03:28:13.048Z,100020.94
2023-04-23T03:30:40.596Z,100024.69
2023-04-23T03:33:08.122Z,100010.91
2023-04-23T03:35:36.004Z,100022.63
2023-04-23T03:38:03.499Z,100016.06
2023-04-23T03:40:32.414Z,100009.50
2023-04-23T03:43:00.018Z,100019.34
2023-04-23T03:45:27.720Z,100010.47
2023-04-23T03:47:55.282Z,100016.44
2023-04-23T03:50:23.006Z,100016.25
2023-04-23T03:52:53.585Z,100015.25
2023-04-23T03:55:21.486Z,100024.31
2023-04-23T03:57:50.341Z,100013.81
2023-04-23T04:00:18.279Z,100024.91
2023-04-23T04:02:45.891Z,100022.84
2023-04-23T04:05:13.731Z,100019.78
2023-04-23T04:07:41.300Z,100014.06
2023-04-23T04:10:09.331Z,100027.97
2023-04-23T04:12:37.066Z,100020.38
2023-04-23T04:15:07.064Z,100024.91
2023-04-23T04:17:34.561Z,100023.88
2023-04-23T04:20:02.022Z,100013.41
2023-04-23T04:22:30.672Z,100022.44
2023-04-23T04:24:58.330Z,100022.63
2023-04-23T04:27:25.776Z,100025.31
2023-04-23T04:29:53.232Z,100024.28
2023-04-23T04:32:23.347Z,100021.44
2023-04-23T04:34:51.070Z,100023.03
2023-04-23T04:37:18.633Z,100032.47
2023-04-23T04:39:46.078Z,100023.47
2023-04-23T04:42:13.640Z,100032.09
2023-04-23T04:44:41.660Z,100032.47
2023-04-23T04:47:09.358Z,100041.94
2023-04-23T04:49:38.221Z,100040.91
2023-04-23T04:52:06.374Z,100043.97
2023-04-23T04:54:33.862Z,100041.91
2023-04-23T04:57:02.208Z,100039.88
2023-04-23T04:59:29.642Z,100042.75
2023-04-23T05:01:57.612Z,100024.28
2023-04-23T05:04:25.267Z,100037.03
2023-04-23T05:06:54.075Z,100035.19
2023-04-23T05:09:21.550Z,100037.66
2023-04-23T05:11:49.514Z,100042.53
2023-04-23T05:14:16.966Z,100036.41
2023-04-23T05:16:44.480Z,100044.41
2023-04-23T05:19:11.961Z,100039.06
2023-04-23T05:21:39.400Z,100042.53
2023-04-23T05:24:08.363Z,100045.63
2023-04-23T05:26:35.840Z,100042.13
2023-04-23T05:29:04.039Z,100049.28
2023-04-23T05:31:31.602Z,100046.22
2023-04-23T05:33:59.054Z,100049.72
2023-04-23T05:36:27.363Z,100039.47
2023-04-23T05:38:54.827Z,100044.19
2023-04-23T05:41:23.617Z,100047.66
2023-04-23T05:43:51.131Z,100040.25
2023-04-23T05:46:18.639Z,100038.16
2023-04-23T05:48:46.148Z,100040.41
2023-04-23T05:51:14.187Z,100050.00
2023-04-23T05:53:41.628Z,100048.31
2023-04-23T05:56:09.085Z,100052.81
2023-04-23T05:58:38.817Z,100056.38
2023-04-23T06:01:06.587Z,100063.94
2023-04-23T06:03:34.318Z,100054.03
2023-04-23T06:06:02.275Z,100057.75
2023-04-23T06:08:29.782Z,100061.16
2023-04-23T06:10:57.280Z,100053.59
2023-04-23T06:13:24.740Z,100059.25
2023-04-23T06:15:53.552Z,100068.69
2023-04-23T06:18:21.022Z,100060.28
2023-04-23T06:20:51.299Z,100055.72
2023-04-23T06:23:18.760Z,100060.63
2023-04-23T06:25:46.238Z,100062.44
2023-04-23T06:28:13.691Z,100050.59
2023-04-23T06:30:41.350Z,100053.47
2023-04-23T06:33:10.715Z,100056.56
2023-04-23T06:35:38.176Z,100054.81
2023-04-23T06:38:06.126Z,100056.81
2023-04-23T06:40:33.617Z,100057.84
2023-04-23T06:43:04.326Z,100053.19
2023-04-23T06:45:33.359Z,100061.13
2023-04-23T06:48:01.226Z,100065.84
2023-04-23T06:50:31.010Z,100069.84
2023-04-23T06:52:58.602Z,100065.56
2023-04-23T06:55:26.662Z,100060.25
2023-04-23T06:57:54.646Z,100050.91
2023-04-23T07:00:23.115Z,100047.91
2023-04-23T07:02:50.901Z,100045.25
2023-04-23T07:05:19.038Z,100047.25
2023-04-23T07:07:47.852Z,100033.28
2023-04-23T07:10:17.575Z,100031.63
2023-04-23T07:12:46.081Z,100040.19
2023-04-23T07:15:13.556Z,100031.53
2023-04-23T07:17:41.365Z,100021.03
2023-04-23T07:20:09.903Z,100018.50
2023-04-23T07:22:37.365Z,100013.72
2023-04-23T07:25:08.518Z,100007.19
2023-04-23T07:27:35.989Z,100007.50
2023-04-23T07:30:03.518Z,100021.50
2023-04-23T07:32:31.274Z,100028.94
2023-04-23T07:34:58.774Z,100026.72
2023-04-23T07:37:26.295Z,100033.66
2023-04-23T07:39:54.551Z,100032.13
2023-04-23T07:42:23.362Z,100032.75
2023-04-23T07:44:50.859Z,100028.75
2023-04-23T07:47:18.316Z,100026.69
2023-04-23T07:49:45.811Z,100017.78
2023-04-23T07:52:13.252Z,100022.88
2023-04-23T07:54:40.752Z,100023.72
2023-04-23T07:57:08.238Z,100038.22
2023-04-23T07:59:39.305Z,100025.50
2023-04-23T08:02:07.264Z,100031.81
2023-04-23T08:04:35.125Z,100020.97
2023-04-23T08:07:02.733Z,100019.81
2023-04-23T08:09:30.237Z,100023.88
2023-04-23T08:11:57.740Z,100015.84
2023-04-23T08:14:25.220Z,100013.22
2023-04-23T08:16:53.985Z,100016.81
2023-04-23T08:19:21.417Z,100016.47
2023-04-23T08:21:49.712Z,100009.97
2023-04-23T08:24:17.133Z,100008.19
2023-04-23T08:26:44.919Z,100006.22
2023-04-23T08:29:12.476Z,100007.88
2023-04-23T08:31:40.040Z,100002.06
2023-04-23T08:34:08.863Z,100000.69
2023-04-23T08:36:36.354Z,99997.38
2023-04-23T08:39:04.171Z,99992.13
2023-04-23T08:41:35.715Z,99985.34
2023-04-23T08:44:08.823Z,99984.19
2023-04-23T08:46:37.900Z,99975.75
2023-04-23T08:49:06.069Z,99979.25
2023-04-23T08:51:39.231Z,99980.44
2023-04-23T08:54:08.111Z,99981.22
2023-04-23T08:56:37.107Z,99977.47
2023-04-23T08:59:09.058Z,99984.13
2023-04-23T09:01:36.709Z,99976.44
2023-04-23T09:04:04.401Z,99968.97
2023-04-23T09:06:33.086Z,99978.88
2023-04-23T09:09:01.861Z,99974.53
2023-04-23T09:11:30.177Z,99971.97
2023-04-23T09:13:57.804Z,99961.09
2023-04-23T09:16:25.306Z,99965.22
2023-04-23T09:18:53.406Z,99971.38
2023-04-23T09:21:21.403Z,99967.13
2023-04-23T09:23:52.956Z,99958.97
2023-04-23T09:26:22.870Z,99961.81
2023-04-23T09:28:51.225Z,99954.72
2023-04-23T09:31:21.712Z,99948.41
2023-04-23T09:33:53.739Z,99949.00
2023-04-23T09:36:23.521Z,99950.47
2023-04-23T09:38:51.509Z,99946.09
2023-04-23T09:41:24.481Z,99930.94
2023-04-23T09:43:54.165Z,99937.09
2023-04-23T09:46:33.846Z,99940.06
2023-04-23T09:49:03.849Z,99934.03
2023-04-23T09:51:32.094Z,99929.19
2023-04-23T09:53:59.570Z,99929.84
2023-04-23T09:56:28.360Z,99934.56
2023-04-23T09:58:55.815Z,99917.34
2023-04-23T10:01:29.540Z,99921.19
2023-04-23T10:03:57.775Z,99922.81
2023-04-23T10:06:42.314Z,99920.78
2023-04-23T10:09:14.138Z,99921.19
2023-04-23T10:11:43.053Z,99918.03
2023-04-23T10:14:10.725Z,99912.06
2023-04-23T10:16:46.378Z,99914.91
2023-04-23T10:19:18.983Z,99917.28
2023-04-23T10:21:54.695Z,99914.56
2023-04-23T10:24:25.462Z,99910.59
2023-04-23T10:26:58.307Z,99910.50
2023-04-23T10:29:29.476Z,99903.31
2023-04-23T10:31:57.979Z,99911.78
2023-04-23T10:34:26.223Z,99919.31
2023-04-23T10:36:54.320Z,99918.97
2023-04-23T10:39:29.790Z,99908.66
2023-04-23T10:41:59.971Z,99915.38
2023-04-23T10:44:56.697Z,99907.16
2023-04-23T10:47:22.722Z,99903.31
2023-04-23T10:49:51.598Z,99897.31
2023-04-23T10:52:22.331Z,99899.09
2023-04-23T10:54:59.739Z,99899.16
2023-04-23T10:57:28.773Z,99900.13
2023-04-23T10:59:58.648Z,99885.41
2023-04-23T11:02:26.576Z,99877.78
2023-04-23T11:04:56.901Z,99877.53
2023-04-23T11:07:27.249Z,99868.81
2023-04-23T11:09:56.404Z,99872.47
2023-04-23T11:12:34.835Z,99869.66
2023-04-23T11:15:11.687Z,99863.72
2023-04-23T11:18:01.874Z,99862.81
2023-04-23T11:20:29.617Z,99853.66
2023-04-23T11:22:57.669Z,99854.22
2023-04-23T11:25:26.823Z,99849.53
2023-04-23T11:27:58.102Z,99848.50
2023-04-23T11:30:26.460Z,99840.03
2023-04-23T11:32:55.674Z,99843.63
2023-04-23T11:35:24.439Z,99843.47
2023-04-23T11:37:52.136Z,99842.16
2023-04-23T11:40:20.356Z,99840.19
2023-04-23T11:42:49.671Z,99832.03
2023-04-23T11:45:20.282Z,99833.34
2023-04-23T11:47:50.606Z,99834.78
2023-04-23T11:50:19.323Z,99837.28
2023-04-23T11:52:46.810Z,99845.31
2023-04-23T11:55:14.408Z,99832.66
2023-04-23T11:57:43.103Z,99834.31
2023-04-23T12:00:19.353Z,99832.09
2023-04-23T12:02:54.094Z,99819.78
2023-04-23T12:05:23.054Z,99814.88
2023-04-23T12:07:51.719Z,99807.88
2023-04-23T12:10:20.588Z,99806.41
2023-04-23T12:12:52.705Z,99796.16
2023-04-23T12:15:21.884Z,99800.41
2023-04-23T12:17:50.989Z,99790.66
2023-04-23T12:20:19.994Z,99802.56
2023-04-23T12:22:47.935Z,99799.72
2023-04-23T12:25:15.929Z,99804.38
2023-04-23T12:27:45.480Z,99796.94
2023-04-23T12:30:13.618Z,99792.81
2023-04-23T12:32:42.499Z,99782.69
2023-04-23T12:35:11.261Z,99778.47
2023-04-23T12:37:38.785Z,99767.38
2023-04-23T12:40:08.044Z,99762.09
2023-04-23T12:42:36.951Z,99767.91
2023-04-23T12:45:09.413Z,99755.50
2023-04-23T12:47:36.901Z,99751.63
2023-04-23T12:50:06.692Z,99736.63
2023-04-23T12:52:34.163Z,99735.66
2023-04-23T12:55:01.686Z,99737.31
2023-04-23T12:57:29.148Z,99732.19
2023-04-23T12:59:56.730Z,99719.47
2023-04-23T13:02:25.712Z,99706.47
2023-04-23T13:04:54.646Z,99708.47
2023-04-23T13:07:23.477Z,99702.75
2023-04-23T13:09:51.041Z,99698.13
2023-04-23T13:12:18.478Z,99692.59
2023-04-23T13:14:45.954Z,99691.00
2023-04-23T13:17:13.574Z,99692.22
2023-04-23T13:19:41.522Z,99687.31
2023-04-23T13:22:09.177Z,99679.84
2023-04-23T13:24:37.948Z,99674.94
2023-04-23T13:27:05.427Z,99673.38
2023-04-23T13:29:33.468Z,99666.94
2023-04-23T13:32:01.685Z,99660.94
2023-04-23T13:34:29.171Z,99659.63
2023-04-23T13:36:57.002Z,99652.44
2023-04-23T13:39:24.607Z,99655.63
2023-04-23T13:42:06.199Z,99655.81
2023-04-23T13:44:36.708Z,99654.53
2023-04-23T13:47:04.299Z,99645.34
2023-04-23T13:49:31.748Z,99646.25
2023-04-23T13:52:04.155Z,99640.56
2023-04-23T13:54:31.602Z,99636.16
2023-04-23T13:57:00.934Z,99636.25
2023-04-23T13:59:28.376Z,99626.38
2023-04-23T14:01:55.896Z,99618.59
2023-04-23T14:04:24.110Z,99619.41
2023-04-23T14:06:51.840Z,99613.28
2023-04-23T14:09:22.012Z,99613.59
2023-04-23T14:11:49.672Z,99609.59
2023-04-23T14:14:18.654Z,99605.53
2023-04-23T14:16:46.183Z,99590.94
2023-04-23T14:19:13.721Z,99586.06
2023-04-23T14:21:41.666Z,99591.47
2023-04-23T14:24:11.636Z,99586.91
2023-04-23T14:26:48.943Z,99568.81
2023-04-23T14:29:25.350Z,99570.44
2023-04-23T14:31:53.082Z,99573.16
2023-04-23T14:34:21.050Z,99558.81
2023-04-23T14:36:49.164Z,99547.75
2023-04-23T14:39:16.905Z,99551.25
2023-04-23T14:41:44.569Z,99540.72
2023-04-23T14:44:12.310Z,99536.94
2023-04-23T14:46:41.227Z,99530.44
2023-04-23T14:49:08.800Z,99531.53
2023-04-23T14:51:37.317Z,99525.03
2023-04-23T14:54:05.284Z,99520.19
2023-04-23T14:56:32.943Z,99523.44
2023-04-23T14:59:00.500Z,99519.34
2023-04-23T15:01:28.215Z,99513.44
2023-04-23T15:03:57.296Z,99514.78
2023-04-23T15:06:24.902Z,99513.97
2023-04-23T15:08:52.351Z,99501.81
2023-04-23T15:11:19.922Z,99494.25
2023-04-23T15:13:51.095Z,99496.41
2023-04-23T15:16:46.656Z,99489.91
2023-04-23T15:19:18.196Z,99493.16
2023-04-23T15:21:46.369Z,99498.78
2023-04-23T15:24:14.040Z,99490.09
2023-04-23T15:26:41.851Z,99487.09
2023-04-23T15:29:09.998Z,99483.31
2023-04-23T15:31:37.855Z,99475.28
2023-04-23T15:34:08.603Z,99479.59
2023-04-23T15:36:38.442Z,99481.22
2023-04-23T15:39:06.792Z,99482.22
2023-04-23T15:41:34.228Z,99483.59
2023-04-23T15:44:02.590Z,99471.44
2023-04-23T15:46:30.478Z,99470.91
2023-04-23T15:48:58.060Z,99468.72
2023-04-23T15:51:25.650Z,99466.03
2023-04-23T15:53:54.532Z,99460.09
2023-04-23T15:56:24.285Z,99463.84
2023-04-23T15:58:51.726Z,99468.16
2023-04-23T16:01:19.852Z,99459.78
2023-04-23T16:04:01.805Z,99463.53
2023-04-23T16:06:34.829Z,99461.03
2023-04-23T16:09:07.027Z,99458.81
2023-04-23T16:11:35.126Z,99459.31
2023-04-23T16:14:03.069Z,99470.91
2023-04-23T16:16:30.769Z,99465.72
2023-04-23T16:18:58.324Z,99471.56
2023-04-23T16:21:25.784Z,99465.38
2023-04-23T16:23:53.257Z,99472.63
2023-04-23T16:26:22.202Z,99497.28
2023-04-23T16:28:52.196Z,99523.94
2023-04-23T16:31:28.533Z,99538.66
2023-04-23T16:33:56.263Z,99538.13
2023-04-23T16:36:23.780Z,99545.78
2023-04-23T16:38:51.312Z,99546.88
2023-04-23T16:41:21.415Z,99562.88
2023-04-23T16:43:50.237Z,99571.56
2023-04-23T16:46:17.760Z,99565.38
2023-04-23T16:48:45.597Z,99564.25
2023-04-23T16:51:13.823Z,99552.31
2023-04-23T16:53:41.357Z,99553.44
2023-04-23T16:56:09.376Z,99556.19
2023-04-23T16:58:36.943Z,99537.75
2023-04-23T17:01:05.786Z,99527.81
2023-04-23T17:03:33.862Z,99535.13
2023-04-23T17:06:09.858Z,99538.03
2023-04-23T17:08:37.996Z,99542.00
2023-04-23T17:11:06.832Z,99536.84
2023-04-23T17:13:35.118Z,99527.34
2023-04-23T17:16:02.716Z,99491.97
2023-04-23T17:18:31.612Z,99492.75
2023-04-23T17:20:59.073Z,99479.47
2023-04-23T17:23:26.614Z,99478.56
2023-04-23T17:25:54.088Z,99474.66
2023-04-23T17:28:21.540Z,99488.53
2023-04-23T17:30:50.252Z,99490.22
2023-04-23T17:33:17.986Z,99485.44
2023-04-23T17:35:47.624Z,99486.25
2023-04-23T17:38:19.652Z,99486.66
2023-04-23T17:40:47.167Z,99489.56
2023-04-23T17:43:14.684Z,99491.41
2023-04-23T17:45:42.276Z,99492.19
2023-04-23T17:48:10.509Z,99494.09
2023-04-23T17:50:37.986Z,99495.75
2023-04-23T17:53:06.818Z,99497.00
2023-04-23T17:55:34.374Z,99487.00
2023-04-23T17:58:05.215Z,99482.13
2023-04-23T18:00:34.996Z,99474.66
2023-04-23T18:03:02.741Z,99493.88
2023-04-23T18:05:30.361Z,99492.09
2023-04-23T18:07:57.920Z,99488.75
2023-04-23T18:10:26.987Z,99490.16
2023-04-23T18:12:55.047Z,99492.84
2023-04-23T18:15:22.838Z,99488.28
2023-04-23T18:17:50.472Z,99479.00
2023-04-23T18:20:18.812Z,99481.53
2023-04-23T18:22:46.242Z,99474.22
2023-04-23T18:25:13.715Z,99485.84
2023-04-23T18:27:42.489Z,99481.91
2023-04-23T18:30:11.832Z,99472.25
2023-04-23T18:32:44.463Z,99479.91
2023-04-23T18:35:12.127Z,99484.44
2023-04-23T18:37:44.640Z,99490.16
2023-04-23T18:40:15.051Z,99482.13
2023-04-23T18:42:43.836Z,99485.16
2023-04-23T18:45:11.974Z,99483.72
2023-04-23T18:47:44.941Z,99484.53
2023-04-23T18:50:31.048Z,99488.38
2023-04-23T18:52:58.580Z,99486.34
2023-04-23T18:55:26.104Z,99496.03
2023-04-23T18:57:56.068Z,99492.91
2023-04-23T19:00:23.830Z,99499.41
2023-04-23T19:02:51.367Z,99495.13
2023-04-23T19:05:19.193Z,99501.03
2023-04-23T19:07:48.325Z,99499.72
2023-04-23T19:10:17.131Z,99507.72
2023-04-23T19:12:47.800Z,99500.19
2023-04-23T19:15:17.974Z,99486.03
2023-04-23T19:17:46.794Z,99493.25
2023-04-23T19:20:15.546Z,99498.75
2023-04-23T19:22:43.151Z,99501.94
2023-04-23T19:25:11.176Z,99503.72
2023-04-23T19:27:38.781Z,99507.00
2023-04-23T19:30:10.219Z,99510.63
2023-04-23T19:32:39.012Z,99508.94
2023-04-23T19:35:06.983Z,99511.22
2023-04-23T19:37:35.968Z,99510.94
2023-04-23T19:40:04.617Z,99509.38
2023-04-23T19:42:32.544Z,99508.31
2023-04-23T19:45:00.266Z,99506.78
2023-04-23T19:47:27.772Z,99513.69
2023-04-23T19:49:56.562Z,99507.59
2023-04-23T19:52:25.115Z,99506.69
2023-04-23T19:54:52.605Z,99521.50
2023-04-23T19:57:22.053Z,99522.38
2023-04-23T19:59:50.205Z,99513.94
2023-04-23T20:02:17.948Z,99514.72
2023-04-23T20:04:45.558Z,99519.16
2023-04-23T20:07:14.495Z,99526.63
2023-04-23T20:09:42.693Z,99514.25
2023-04-23T20:12:10.369Z,99517.66
2023-04-23T20:14:37.858Z,99517.19
2023-04-23T20:17:05.594Z,99517.66
2023-04-23T20:19:33.240Z,99527.00
2023-04-23T20:22:03.863Z,99525.88
2023-04-23T20:24:33.509Z,99500.25
2023-04-23T20:27:01.551Z,99504.75
2023-04-23T20:29:30.689Z,99512.88
2023-04-23T20:31:58.281Z,99509.19
2023-04-23T20:34:26.015Z,99502.91
2023-04-23T20:36:53.466Z,99515.28
2023-04-23T20:39:24.022Z,99495.81
2023-04-23T20:42:00.900Z,99497.56
2023-04-23T20:44:28.407Z,99499.25
2023-04-23T20:46:57.803Z,99510.91
2023-04-23T20:49:26.087Z,99511.41
2023-04-23T20:51:54.242Z,99509.63
2023-04-23T20:54:21.696Z,99504.59
2023-04-23T20:56:53.868Z,99514.19
2023-04-23T20:59:22.717Z,99514.75
2023-04-23T21:01:50.526Z,99515.25
2023-04-23T21:04:18.212Z,99522.69
2023-04-23T21:06:46.982Z,99516.47
2023-04-23T21:09:14.662Z,99519.00
2023-04-23T21:11:42.257Z,99528.50
2023-04-23T21:14:09.748Z,99526.72
2023-04-23T21:16:39.082Z,99524.06
2023-04-23T21:19:07.047Z,99521.38
2023-04-23T21:21:34.488Z,99519.22
2023-04-23T21:24:02.172Z,99517.66
2023-04-23T21:26:31.065Z,99527.31
2023-04-23T21:28:58.630Z,99534.59
2023-04-23T21:31:32.448Z,99536.06
2023-04-23T21:34:01.272Z,99526.22
2023-04-23T21:36:29.058Z,99529.31
2023-04-23T21:38:56.490Z,99525.31
2023-04-23T21:41:24.410Z,99539.78
2023-04-23T21:43:51.924Z,99539.03
2023-04-23T21:46:19.487Z,99535.41
2023-04-23T21:48:50.189Z,99535.34
2023-04-23T21:51:18.999Z,99535.78
2023-04-23T21:53:46.465Z,99535.41
2023-04-23T21:56:14.482Z,99539.13
2023-04-23T21:58:42.003Z,99546.00
2023-04-23T22:01:09.554Z,99541.03
2023-04-23T22:03:41.956Z,99543.16
2023-04-23T22:06:10.580Z,99528.72
2023-04-23T22:08:40.365Z,99534.00
2023-04-23T22:11:08.583Z,99537.94
2023-04-23T22:13:36.136Z,99536.72
2023-04-23T22:16:06.606Z,99534.22
2023-04-23T22:18:38.754Z,99532.81
2023-04-23T22:21:06.483Z,99531.38
2023-04-23T22:23:33.944Z,99533.09
2023-04-23T22:26:02.740Z,99539.59
2023-04-23T22:28:30.250Z,99540.44
2023-04-23T22:30:57.756Z,99544.50
2023-04-23T22:33:26.438Z,99545.13
2023-04-23T22:35:53.962Z,99534.94
2023-04-23T22:38:31.062Z,99531.59
2023-04-23T22:40:58.566Z,99532.41
2023-04-23T22:43:27.353Z,99531.81
2023-04-23T22:45:54.892Z,99534.09
2023-04-23T22:48:23.728Z,99533.72
2023-04-23T22:50:52.497Z,99529.94
2023-04-23T22:53:20.252Z,99531.53
2023-04-23T22:55:49.351Z,99537.81
2023-04-23T22:58:16.958Z,99525.94
2023-04-23T23:00:46.006Z,99531.44
2023-04-23T23:03:13.514Z,99527.28
2023-04-23T23:05:41.059Z,99530.41
2023-04-23T23:08:08.538Z,99526.25
2023-04-23T23:10:36.009Z,99520.03
2023-04-23T23:13:03.451Z,99512.22
2023-04-23T23:15:31.051Z,99510.78
2023-04-23T23:17:59.908Z,99506.47
2023-04-23T23:20:27.407Z,99504.72
2023-04-23T23:22:54.865Z,99511.44
2023-04-23T23:25:22.704Z,99509.63
2023-04-23T23:27:50.198Z,99509.78
2023-04-23T23:30:17.767Z,99518.66
2023-04-23T23:32:45.557Z,99511.09
2023-04-23T23:35:14.386Z,99521.78
2023-04-23T23:37:41.827Z,99506.97
2023-04-23T23:40:10.842Z,99509.19
2023-04-23T23:42:38.302Z,99512.28
2023-04-23T23:45:06.994Z,99508.16
2023-04-23T23:47:34.686Z,99504.22
2023-04-23T23:50:02.199Z,99500.78
2023-04-23T23:52:31.019Z,99500.78
2023-04-23T23:54:58.481Z,99494.19
2023-04-23T23:57:26.080Z,99506.31
2023-04-23T23:59:53.609Z,99500.78
